sensor_id;sensor_type;location;lat;lon;timestamp;temperature;humidity
11280;DHT22;5696;50.928;6.960;2023-01-31T06:01:55;4.50;99.90
11280;DHT22;5696;50.928;6.960;2023-01-31T06:04:21;4.60;99.90
11280;DHT22;5696;50.928;6.960;2023-01-31T06:06:47;4.60;99.90
11280;DHT22;5696;50.928;6.960;2023-01-31T06:09:13;4.60;99.90
11280;DHT22;5696;50.928;6.960;2023-01-31T06:11:38;4.60;99.90
11280;DHT22;5696;50.928;6.960;2023-01-31T06:14:04;4.60;99.90
11280;DHT22;5696;50.928;6.960;2023-01-31T06:16:31;4.60;99.90
11280;DHT22;5696;50.928;6.960;2023-01-31T06:18:57;4.60;99.90
11280;DHT22;5696;50.928;6.960;2023-01-31T06:21:22;4.60;99.90
11280;DHT22;5696;50.928;6.960;2023-01-31T06:23:48;4.70;99.90
11280;DHT22;5696;50.928;6.960;2023-01-31T06:26:13;4.80;99.90
11280;DHT22;5696;50.928;6.960;2023-01-31T06:28:39;4.70;99.90
11280;DHT22;5696;50.928;6.960;2023-01-31T06:31:08;4.80;99.90
11280;DHT22;5696;50.928;6.960;2023-01-31T06:33:34;4.70;99.90
11280;DHT22;5696;50.928;6.960;2023-01-31T06:36:01;4.80;99.90
11280;DHT22;5696;50.928;6.960;2023-01-31T06:38:27;4.80;99.90
11280;DHT22;5696;50.928;6.960;2023-01-31T06:40:53;4.90;99.90
11280;DHT22;5696;50.928;6.960;2023-01-31T06:43:19;4.90;99.90
11280;DHT22;5696;50.928;6.960;2023-01-31T06:45:44;4.90;99.90
11280;DHT22;5696;50.928;6.960;2023-01-31T06:48:11;5.00;99.90
11280;DHT22;5696;50.928;6.960;2023-01-31T06:50:36;5.00;99.90
11280;DHT22;5696;50.928;6.960;2023-01-31T06:53:03;5.10;99.90
11280;DHT22;5696;50.928;6.960;2023-01-31T06:55:28;5.10;99.90
11280;DHT22;5696;50.928;6.960;2023-01-31T06:57:54;5.10;99.90
11280;DHT22;5696;50.928;6.960;2023-01-31T07:00:21;5.10;99.90
11280;DHT22;5696;50.928;6.960;2023-01-31T07:02:49;5.10;99.90
11280;DHT22;5696;50.928;6.960;2023-01-31T07:05:15;5.10;99.90
11280;DHT22;5696;50.928;6.960;2023-01-31T07:07:41;5.10;99.90
11280;DHT22;5696;50.928;6.960;2023-01-31T07:10:07;5.20;99.90
11280;DHT22;5696;50.928;6.960;2023-01-31T07:12:33;5.20;99.90
11280;DHT22;5696;50.928;6.960;2023-01-31T07:14:58;5.30;99.90
11280;DHT22;5696;50.928;6.960;2023-01-31T07:17:24;5.30;99.90
11280;DHT22;5696;50.928;6.960;2023-01-31T07:19:50;5.30;99.90
11280;DHT22;5696;50.928;6.960;2023-01-31T07:22:15;5.40;99.90
11280;DHT22;5696;50.928;6.960;2023-01-31T07:24:41;5.40;99.90
11280;DHT22;5696;50.928;6.960;2023-01-31T07:27:07;5.50;99.90
11280;DHT22;5696;50.928;6.960;2023-01-31T07:29:32;5.40;99.90
11280;DHT22;5696;50.928;6.960;2023-01-31T07:31:58;5.50;99.90
11280;DHT22;5696;50.928;6.960;2023-01-31T07:34:23;5.50;99.90
11280;DHT22;5696;50.928;6.960;2023-01-31T07:36:49;5.50;99.90
11280;DHT22;5696;50.928;6.960;2023-01-31T07:39:15;5.60;99.90
11280;DHT22;5696;50.928;6.960;2023-01-31T07:41:41;5.70;99.90
11280;DHT22;5696;50.928;6.960;2023-01-31T07:44:07;5.80;99.90
11280;DHT22;5696;50.928;6.960;2023-01-31T07:46:35;5.80;99.90
11280;DHT22;5696;50.928;6.960;2023-01-31T07:49:00;5.90;99.90
11280;DHT22;5696;50.928;6.960;2023-01-31T07:51:26;6.00;99.90
11280;DHT22;5696;50.928;6.960;2023-01-31T07:53:51;6.00;99.90
11280;DHT22;5696;50.928;6.960;2023-01-31T07:56:19;6.10;99.90
11280;DHT22;5696;50.928;6.960;2023-01-31T07:58:47;6.20;99.90
11280;DHT22;5696;50.928;6.960;2023-01-31T08:01:21;6.20;99.90
11280;DHT22;5696;50.928;6.960;2023-01-31T08:04:06;6.30;99.90
11280;DHT22;5696;50.928;6.960;2023-01-31T08:06:32;6.40;99.90
11280;DHT22;5696;50.928;6.960;2023-01-31T08:08:59;6.40;99.90
11280;DHT22;5696;50.928;6.960;2023-01-31T08:11:25;6.40;99.90
11280;DHT22;5696;50.928;6.960;2023-01-31T08:13:50;6.40;99.90
11280;DHT22;5696;50.928;6.960;2023-01-31T08:16:16;6.50;99.90
11280;DHT22;5696;50.928;6.960;2023-01-31T08:18:42;6.60;99.90
11280;DHT22;5696;50.928;6.960;2023-01-31T08:21:10;6.60;99.90
11280;DHT22;5696;50.928;6.960;2023-01-31T08:23:36;6.70;99.90
11280;DHT22;5696;50.928;6.960;2023-01-31T08:26:06;6.70;99.90
11280;DHT22;5696;50.928;6.960;2023-01-31T08:28:35;6.80;99.90
11280;DHT22;5696;50.928;6.960;2023-01-31T08:31:01;6.80;99.90
11280;DHT22;5696;50.928;6.960;2023-01-31T08:33:26;6.90;99.90
11280;DHT22;5696;50.928;6.960;2023-01-31T08:35:52;7.10;99.90
11280;DHT22;5696;50.928;6.960;2023-01-31T08:38:18;7.00;99.90
11280;DHT22;5696;50.928;6.960;2023-01-31T08:40:43;7.00;99.90
11280;DHT22;5696;50.928;6.960;2023-01-31T08:43:09;6.90;99.90
11280;DHT22;5696;50.928;6.960;2023-01-31T08:45:35;7.20;99.90
11280;DHT22;5696;50.928;6.960;2023-01-31T08:48:01;7.20;99.90
11280;DHT22;5696;50.928;6.960;2023-01-31T08:50:28;7.50;99.90
11280;DHT22;5696;50.928;6.960;2023-01-31T08:52:56;7.40;99.90
11280;DHT22;5696;50.928;6.960;2023-01-31T08:55:23;7.50;99.90
11280;DHT22;5696;50.928;6.960;2023-01-31T08:57:49;7.50;99.90
11280;DHT22;5696;50.928;6.960;2023-01-31T09:00:16;7.50;99.90
11280;DHT22;5696;50.928;6.960;2023-01-31T09:02:42;7.40;99.90
11280;DHT22;5696;50.928;6.960;2023-01-31T09:05:08;7.50;99.90
11280;DHT22;5696;50.928;6.960;2023-01-31T09:07:34;7.60;99.90
11280;DHT22;5696;50.928;6.960;2023-01-31T09:10:00;7.60;99.90
11280;DHT22;5696;50.928;6.960;2023-01-31T09:12:25;7.60;99.90
11280;DHT22;5696;50.928;6.960;2023-01-31T09:14:51;7.50;99.90
11280;DHT22;5696;50.928;6.960;2023-01-31T09:17:17;7.50;99.90
11280;DHT22;5696;50.928;6.960;2023-01-31T09:19:43;7.50;99.90
11280;DHT22;5696;50.928;6.960;2023-01-31T09:22:09;7.40;99.90
11280;DHT22;5696;50.928;6.960;2023-01-31T09:24:35;7.30;99.90
11280;DHT22;5696;50.928;6.960;2023-01-31T09:27:01;7.40;99.90
11280;DHT22;5696;50.928;6.960;2023-01-31T09:29:26;7.40;99.90
11280;DHT22;5696;50.928;6.960;2023-01-31T09:31:53;7.50;99.90
11280;DHT22;5696;50.928;6.960;2023-01-31T09:34:19;7.50;99.90
11280;DHT22;5696;50.928;6.960;2023-01-31T09:36:44;7.60;99.90
11280;DHT22;5696;50.928;6.960;2023-01-31T09:39:11;7.70;99.90
11280;DHT22;5696;50.928;6.960;2023-01-31T09:41:54;7.80;99.90
11280;DHT22;5696;50.928;6.960;2023-01-31T09:44:23;7.80;99.90
11280;DHT22;5696;50.928;6.960;2023-01-31T09:46:54;7.90;99.90
11280;DHT22;5696;50.928;6.960;2023-01-31T09:49:26;7.90;99.90
11280;DHT22;5696;50.928;6.960;2023-01-31T09:51:56;7.80;99.90
11280;DHT22;5696;50.928;6.960;2023-01-31T09:54:29;7.90;99.90
11280;DHT22;5696;50.928;6.960;2023-01-31T10:05:13;8.10;99.90
11280;DHT22;5696;50.928;6.960;2023-01-31T10:08:08;8.20;99.90
11280;DHT22;5696;50.928;6.960;2023-01-31T10:10:37;8.20;99.90
11280;DHT22;5696;50.928;6.960;2023-01-31T10:13:22;8.30;99.90
11280;DHT22;5696;50.928;6.960;2023-01-31T10:15:54;8.30;99.90
11280;DHT22;5696;50.928;6.960;2023-01-31T10:18:26;8.20;99.90
11280;DHT22;5696;50.928;6.960;2023-01-31T10:21:00;8.20;99.90
11280;DHT22;5696;50.928;6.960;2023-01-31T10:24:02;8.40;99.90
11280;DHT22;5696;50.928;6.960;2023-01-31T10:26:30;8.20;99.90
11280;DHT22;5696;50.928;6.960;2023-01-31T10:31:56;8.40;99.90
11280;DHT22;5696;50.928;6.960;2023-01-31T10:34:29;8.60;99.90
11280;DHT22;5696;50.928;6.960;2023-01-31T10:37:17;8.50;99.90
11280;DHT22;5696;50.928;6.960;2023-01-31T10:39:54;8.80;99.90
11280;DHT22;5696;50.928;6.960;2023-01-31T10:42:31;8.80;99.90
11280;DHT22;5696;50.928;6.960;2023-01-31T10:45:17;8.90;99.90
11280;DHT22;5696;50.928;6.960;2023-01-31T10:47:49;8.80;99.90
11280;DHT22;5696;50.928;6.960;2023-01-31T10:50:18;8.80;99.90
11280;DHT22;5696;50.928;6.960;2023-01-31T10:53:07;8.90;99.90
11280;DHT22;5696;50.928;6.960;2023-01-31T10:56:02;8.60;99.90
11280;DHT22;5696;50.928;6.960;2023-01-31T10:58:29;8.50;99.90
11280;DHT22;5696;50.928;6.960;2023-01-31T11:00:54;8.50;99.90
11280;DHT22;5696;50.928;6.960;2023-01-31T11:03:20;8.80;99.90
11280;DHT22;5696;50.928;6.960;2023-01-31T11:05:57;8.90;99.90
11280;DHT22;5696;50.928;6.960;2023-01-31T11:08:34;9.10;99.90
11280;DHT22;5696;50.928;6.960;2023-01-31T11:11:07;9.10;99.90
11280;DHT22;5696;50.928;6.960;2023-01-31T11:13:34;9.20;99.90
11280;DHT22;5696;50.928;6.960;2023-01-31T11:16:00;9.30;99.90
11280;DHT22;5696;50.928;6.960;2023-01-31T11:18:31;9.20;99.90
11280;DHT22;5696;50.928;6.960;2023-01-31T11:21:00;9.30;99.90
11280;DHT22;5696;50.928;6.960;2023-01-31T11:23:28;9.50;99.90
11280;DHT22;5696;50.928;6.960;2023-01-31T11:25:54;9.50;99.90
11280;DHT22;5696;50.928;6.960;2023-01-31T11:28:38;9.40;99.90
11280;DHT22;5696;50.928;6.960;2023-01-31T11:31:07;9.60;99.90
11280;DHT22;5696;50.928;6.960;2023-01-31T11:33:45;9.60;99.90
11280;DHT22;5696;50.928;6.960;2023-01-31T11:36:19;9.60;99.90
11280;DHT22;5696;50.928;6.960;2023-01-31T11:38:50;9.40;99.90
11280;DHT22;5696;50.928;6.960;2023-01-31T11:41:34;9.60;99.90
11280;DHT22;5696;50.928;6.960;2023-01-31T11:44:16;9.80;99.90
11280;DHT22;5696;50.928;6.960;2023-01-31T11:47:03;9.80;99.90
11280;DHT22;5696;50.928;6.960;2023-01-31T11:49:34;9.80;99.90
11280;DHT22;5696;50.928;6.960;2023-01-31T11:52:21;9.80;99.90
11280;DHT22;5696;50.928;6.960;2023-01-31T11:54:55;9.90;99.90
11280;DHT22;5696;50.928;6.960;2023-01-31T11:57:24;9.80;99.90
11280;DHT22;5696;50.928;6.960;2023-01-31T11:59:53;9.80;99.90
11280;DHT22;5696;50.928;6.960;2023-01-31T12:02:40;9.80;99.90
11280;DHT22;5696;50.928;6.960;2023-01-31T12:05:17;9.90;99.90
11280;DHT22;5696;50.928;6.960;2023-01-31T12:07:48;9.70;99.90
11280;DHT22;5696;50.928;6.960;2023-01-31T12:13:00;9.50;99.90
11280;DHT22;5696;50.928;6.960;2023-01-31T12:15:28;9.30;99.90
11280;DHT22;5696;50.928;6.960;2023-01-31T12:17:54;9.30;99.90
11280;DHT22;5696;50.928;6.960;2023-01-31T12:23:20;9.40;99.90
11280;DHT22;5696;50.928;6.960;2023-01-31T12:28:32;9.70;99.90
11280;DHT22;5696;50.928;6.960;2023-01-31T12:34:17;9.60;99.90
11280;DHT22;5696;50.928;6.960;2023-01-31T12:37:10;9.50;99.90
11280;DHT22;5696;50.928;6.960;2023-01-31T12:39:52;9.60;99.90
11280;DHT22;5696;50.928;6.960;2023-01-31T12:42:56;9.40;99.90
11280;DHT22;5696;50.928;6.960;2023-01-31T12:57:16;9.60;99.90
11280;DHT22;5696;50.928;6.960;2023-01-31T13:08:12;9.30;99.90
11280;DHT22;5696;50.928;6.960;2023-01-31T13:10:57;9.20;99.90
11280;DHT22;5696;50.928;6.960;2023-01-31T13:13:51;9.20;99.90
11280;DHT22;5696;50.928;6.960;2023-01-31T13:18:48;9.10;99.90
11280;DHT22;5696;50.928;6.960;2023-01-31T13:21:19;9.20;99.90
11280;DHT22;5696;50.928;6.960;2023-01-31T13:23:48;9.20;99.90
11280;DHT22;5696;50.928;6.960;2023-01-31T13:26:27;9.10;99.90
11280;DHT22;5696;50.928;6.960;2023-01-31T13:29:17;9.00;99.90
11280;DHT22;5696;50.928;6.960;2023-01-31T13:32:01;9.00;99.90
11280;DHT22;5696;50.928;6.960;2023-01-31T13:34:38;8.90;99.90
11280;DHT22;5696;50.928;6.960;2023-01-31T13:37:12;8.90;99.90
11280;DHT22;5696;50.928;6.960;2023-01-31T13:39:42;8.80;99.90
11280;DHT22;5696;50.928;6.960;2023-01-31T13:42:12;8.80;99.90
11280;DHT22;5696;50.928;6.960;2023-01-31T13:44:39;8.70;99.90
11280;DHT22;5696;50.928;6.960;2023-01-31T13:49:53;8.60;99.90
11280;DHT22;5696;50.928;6.960;2023-01-31T13:55:01;8.70;99.90
11280;DHT22;5696;50.928;6.960;2023-01-31T13:57:31;8.80;99.90
11280;DHT22;5696;50.928;6.960;2023-01-31T14:10:56;8.60;99.90
11280;DHT22;5696;50.928;6.960;2023-01-31T14:15:58;8.40;99.90
11280;DHT22;5696;50.928;6.960;2023-01-31T14:18:43;8.30;99.90
11280;DHT22;5696;50.928;6.960;2023-01-31T14:24:01;8.20;99.90
11280;DHT22;5696;50.928;6.960;2023-01-31T14:26:50;8.30;99.90
11280;DHT22;5696;50.928;6.960;2023-01-31T14:29:21;8.10;99.90
11280;DHT22;5696;50.928;6.960;2023-01-31T14:31:48;8.10;99.90
11280;DHT22;5696;50.928;6.960;2023-01-31T14:34:27;8.20;99.90
11280;DHT22;5696;50.928;6.960;2023-01-31T14:39:49;8.00;99.90
11280;DHT22;5696;50.928;6.960;2023-01-31T14:42:22;8.00;99.90
11280;DHT22;5696;50.928;6.960;2023-01-31T14:58:42;8.20;99.90
11280;DHT22;5696;50.928;6.960;2023-01-31T15:01:09;8.20;99.90
11280;DHT22;5696;50.928;6.960;2023-01-31T15:03:47;8.20;99.90
11280;DHT22;5696;50.928;6.960;2023-01-31T15:06:21;8.20;99.90
11280;DHT22;5696;50.928;6.960;2023-01-31T15:08:48;8.20;99.90
11280;DHT22;5696;50.928;6.960;2023-01-31T15:11:36;8.20;99.90
11280;DHT22;5696;50.928;6.960;2023-01-31T15:14:24;8.00;99.90
11280;DHT22;5696;50.928;6.960;2023-01-31T15:17:00;8.00;99.90
11280;DHT22;5696;50.928;6.960;2023-01-31T15:19:31;8.00;99.90
11280;DHT22;5696;50.928;6.960;2023-01-31T15:22:05;8.00;99.90
11280;DHT22;5696;50.928;6.960;2023-01-31T15:24:37;8.00;99.90
11280;DHT22;5696;50.928;6.960;2023-01-31T15:35:24;7.90;99.90
11280;DHT22;5696;50.928;6.960;2023-01-31T15:38:21;8.00;99.90
11280;DHT22;5696;50.928;6.960;2023-01-31T15:41:04;7.90;99.90
11280;DHT22;5696;50.928;6.960;2023-01-31T15:43:30;7.80;99.90
11280;DHT22;5696;50.928;6.960;2023-01-31T15:45:56;7.80;99.90
11280;DHT22;5696;50.928;6.960;2023-01-31T15:48:21;7.80;99.90
11280;DHT22;5696;50.928;6.960;2023-01-31T15:50:56;7.70;99.90
11280;DHT22;5696;50.928;6.960;2023-01-31T15:53:24;7.70;99.90
11280;DHT22;5696;50.928;6.960;2023-01-31T15:55:55;7.70;99.90
11280;DHT22;5696;50.928;6.960;2023-01-31T15:58:25;7.70;99.90
11280;DHT22;5696;50.928;6.960;2023-01-31T16:00:53;7.70;99.90
11280;DHT22;5696;50.928;6.960;2023-01-31T16:03:27;7.60;99.90
11280;DHT22;5696;50.928;6.960;2023-01-31T16:05:55;7.70;99.90
11280;DHT22;5696;50.928;6.960;2023-01-31T16:08:33;7.70;99.90
11280;DHT22;5696;50.928;6.960;2023-01-31T16:11:08;7.70;99.90
11280;DHT22;5696;50.928;6.960;2023-01-31T16:13:36;7.70;99.90
11280;DHT22;5696;50.928;6.960;2023-01-31T16:16:07;7.60;99.90
11280;DHT22;5696;50.928;6.960;2023-01-31T16:18:39;7.70;99.90
11280;DHT22;5696;50.928;6.960;2023-01-31T16:26:38;7.60;99.90
11280;DHT22;5696;50.928;6.960;2023-01-31T16:29:12;7.60;99.90
11280;DHT22;5696;50.928;6.960;2023-01-31T16:31:48;7.60;99.90
11280;DHT22;5696;50.928;6.960;2023-01-31T16:34:34;7.70;99.90
11280;DHT22;5696;50.928;6.960;2023-01-31T16:37:04;7.70;99.90
11280;DHT22;5696;50.928;6.960;2023-01-31T16:39:45;7.70;99.90
11280;DHT22;5696;50.928;6.960;2023-01-31T16:44:47;7.70;99.90
11280;DHT22;5696;50.928;6.960;2023-01-31T16:50:27;7.90;99.90
11280;DHT22;5696;50.928;6.960;2023-01-31T16:53:32;7.90;99.90
11280;DHT22;5696;50.928;6.960;2023-01-31T16:58:56;7.80;99.90
11280;DHT22;5696;50.928;6.960;2023-01-31T17:01:26;7.80;99.90
11280;DHT22;5696;50.928;6.960;2023-01-31T17:04:10;7.80;99.90
11280;DHT22;5696;50.928;6.960;2023-01-31T17:06:38;7.90;99.90
11280;DHT22;5696;50.928;6.960;2023-01-31T17:09:06;7.90;99.90
11280;DHT22;5696;50.928;6.960;2023-01-31T17:11:33;7.80;99.90
11280;DHT22;5696;50.928;6.960;2023-01-31T17:13:58;7.90;99.90
11280;DHT22;5696;50.928;6.960;2023-01-31T17:16:24;7.90;99.90
11280;DHT22;5696;50.928;6.960;2023-01-31T17:18:54;7.80;99.90
11280;DHT22;5696;50.928;6.960;2023-01-31T17:21:23;7.90;99.90
11280;DHT22;5696;50.928;6.960;2023-01-31T17:23:52;7.90;99.90
11280;DHT22;5696;50.928;6.960;2023-01-31T17:26:21;7.90;99.90
11280;DHT22;5696;50.928;6.960;2023-01-31T17:28:47;7.90;99.90
11280;DHT22;5696;50.928;6.960;2023-01-31T17:31:23;7.90;99.90
11280;DHT22;5696;50.928;6.960;2023-01-31T17:33:52;7.90;99.90
11280;DHT22;5696;50.928;6.960;2023-01-31T17:36:17;7.90;99.90
11280;DHT22;5696;50.928;6.960;2023-01-31T17:38:43;7.90;99.90
11280;DHT22;5696;50.928;6.960;2023-01-31T17:41:19;7.90;99.90
11280;DHT22;5696;50.928;6.960;2023-01-31T17:43:45;7.90;99.90
11280;DHT22;5696;50.928;6.960;2023-01-31T17:46:16;8.00;99.90
11280;DHT22;5696;50.928;6.960;2023-01-31T17:48:42;7.90;99.90
11280;DHT22;5696;50.928;6.960;2023-01-31T17:51:08;7.90;99.90
11280;DHT22;5696;50.928;6.960;2023-01-31T17:53:34;8.00;99.90
11280;DHT22;5696;50.928;6.960;2023-01-31T17:56:00;8.00;99.90
11280;DHT22;5696;50.928;6.960;2023-01-31T17:58:25;8.10;99.90
11280;DHT22;5696;50.928;6.960;2023-01-31T18:00:55;8.00;99.90
11280;DHT22;5696;50.928;6.960;2023-01-31T18:03:24;8.00;99.90
11280;DHT22;5696;50.928;6.960;2023-01-31T18:05:50;7.90;99.90
11280;DHT22;5696;50.928;6.960;2023-01-31T18:08:17;8.00;99.90
11280;DHT22;5696;50.928;6.960;2023-01-31T18:10:43;8.00;99.90
11280;DHT22;5696;50.928;6.960;2023-01-31T18:13:09;7.90;99.90
11280;DHT22;5696;50.928;6.960;2023-01-31T18:15:35;8.00;99.90
11280;DHT22;5696;50.928;6.960;2023-01-31T18:18:04;8.00;99.90
11280;DHT22;5696;50.928;6.960;2023-01-31T18:20:38;8.00;99.90
11280;DHT22;5696;50.928;6.960;2023-01-31T18:23:05;8.00;99.90
11280;DHT22;5696;50.928;6.960;2023-01-31T18:25:31;8.10;99.90
11280;DHT22;5696;50.928;6.960;2023-01-31T18:27:57;8.10;99.90
11280;DHT22;5696;50.928;6.960;2023-01-31T18:30:23;8.10;99.90
11280;DHT22;5696;50.928;6.960;2023-01-31T18:32:48;8.10;99.90
11280;DHT22;5696;50.928;6.960;2023-01-31T18:35:14;8.10;99.90
11280;DHT22;5696;50.928;6.960;2023-01-31T18:37:40;8.10;99.90
11280;DHT22;5696;50.928;6.960;2023-01-31T18:40:05;8.00;99.90
11280;DHT22;5696;50.928;6.960;2023-01-31T18:42:31;8.20;99.90
11280;DHT22;5696;50.928;6.960;2023-01-31T18:44:57;8.20;99.90
11280;DHT22;5696;50.928;6.960;2023-01-31T18:47:22;8.10;99.90
11280;DHT22;5696;50.928;6.960;2023-01-31T18:49:48;8.10;99.90
11280;DHT22;5696;50.928;6.960;2023-01-31T18:52:14;8.20;99.90
11280;DHT22;5696;50.928;6.960;2023-01-31T18:54:41;8.10;99.90
11280;DHT22;5696;50.928;6.960;2023-01-31T18:57:07;8.10;99.90
11280;DHT22;5696;50.928;6.960;2023-01-31T18:59:33;8.10;99.90
11280;DHT22;5696;50.928;6.960;2023-01-31T19:01:59;8.10;99.90
11280;DHT22;5696;50.928;6.960;2023-01-31T19:04:24;8.10;99.90
11280;DHT22;5696;50.928;6.960;2023-01-31T19:06:50;8.10;99.90
11280;DHT22;5696;50.928;6.960;2023-01-31T19:09:16;8.00;99.90
11280;DHT22;5696;50.928;6.960;2023-01-31T19:11:42;8.00;99.90
11280;DHT22;5696;50.928;6.960;2023-01-31T19:14:12;8.00;99.90
11280;DHT22;5696;50.928;6.960;2023-01-31T19:16:39;8.00;99.90
11280;DHT22;5696;50.928;6.960;2023-01-31T19:19:06;8.00;99.90
11280;DHT22;5696;50.928;6.960;2023-01-31T19:21:33;7.90;99.90
11280;DHT22;5696;50.928;6.960;2023-01-31T19:24:01;7.90;99.90
11280;DHT22;5696;50.928;6.960;2023-01-31T19:26:27;7.90;99.90
11280;DHT22;5696;50.928;6.960;2023-01-31T19:28:54;7.90;99.90
11280;DHT22;5696;50.928;6.960;2023-01-31T19:31:22;7.90;99.90
11280;DHT22;5696;50.928;6.960;2023-01-31T19:33:52;7.90;99.90
11280;DHT22;5696;50.928;6.960;2023-01-31T19:36:20;7.80;99.90
11280;DHT22;5696;50.928;6.960;2023-01-31T19:38:46;7.80;99.90
11280;DHT22;5696;50.928;6.960;2023-01-31T19:41:14;7.90;99.90
11280;DHT22;5696;50.928;6.960;2023-01-31T19:43:41;7.90;99.90
11280;DHT22;5696;50.928;6.960;2023-01-31T19:46:08;7.90;99.90
11280;DHT22;5696;50.928;6.960;2023-01-31T19:48:34;7.90;99.90
11280;DHT22;5696;50.928;6.960;2023-01-31T19:51:08;7.90;99.90
11280;DHT22;5696;50.928;6.960;2023-01-31T19:53:35;7.80;99.90
11280;DHT22;5696;50.928;6.960;2023-01-31T19:56:01;7.70;99.90
11280;DHT22;5696;50.928;6.960;2023-01-31T19:58:27;7.70;99.90
11280;DHT22;5696;50.928;6.960;2023-01-31T20:01:10;7.60;99.90
11280;DHT22;5696;50.928;6.960;2023-01-31T20:03:36;7.60;99.90
11280;DHT22;5696;50.928;6.960;2023-01-31T20:06:04;7.50;99.90
11280;DHT22;5696;50.928;6.960;2023-01-31T20:08:30;7.40;99.90
11280;DHT22;5696;50.928;6.960;2023-01-31T20:10:56;7.40;99.90
11280;DHT22;5696;50.928;6.960;2023-01-31T20:13:24;7.40;99.90
11280;DHT22;5696;50.928;6.960;2023-01-31T20:16:00;7.40;99.90
11280;DHT22;5696;50.928;6.960;2023-01-31T20:18:26;7.40;99.90
11280;DHT22;5696;50.928;6.960;2023-01-31T20:20:52;7.50;99.90
11280;DHT22;5696;50.928;6.960;2023-01-31T20:23:18;7.50;99.90
11280;DHT22;5696;50.928;6.960;2023-01-31T20:25:50;7.50;99.90
11280;DHT22;5696;50.928;6.960;2023-01-31T20:28:16;7.50;99.90
11280;DHT22;5696;50.928;6.960;2023-01-31T20:30:42;7.50;99.90
11280;DHT22;5696;50.928;6.960;2023-01-31T20:33:08;7.60;99.90
11280;DHT22;5696;50.928;6.960;2023-01-31T20:35:34;7.60;99.90
11280;DHT22;5696;50.928;6.960;2023-01-31T20:37:59;7.70;99.90
11280;DHT22;5696;50.928;6.960;2023-01-31T20:40:25;7.80;99.90
11280;DHT22;5696;50.928;6.960;2023-01-31T20:42:51;7.80;99.90
11280;DHT22;5696;50.928;6.960;2023-01-31T20:45:16;7.80;99.90
11280;DHT22;5696;50.928;6.960;2023-01-31T20:47:42;7.70;99.90
11280;DHT22;5696;50.928;6.960;2023-01-31T20:50:08;7.70;99.90
11280;DHT22;5696;50.928;6.960;2023-01-31T20:52:34;7.60;99.90
11280;DHT22;5696;50.928;6.960;2023-01-31T20:55:00;7.50;99.90
11280;DHT22;5696;50.928;6.960;2023-01-31T20:57:25;7.50;99.90
11280;DHT22;5696;50.928;6.960;2023-01-31T20:59:51;7.40;99.90
11280;DHT22;5696;50.928;6.960;2023-01-31T21:02:16;7.50;99.90
11280;DHT22;5696;50.928;6.960;2023-01-31T21:04:42;7.50;99.90
11280;DHT22;5696;50.928;6.960;2023-01-31T21:07:08;7.40;99.90
11280;DHT22;5696;50.928;6.960;2023-01-31T21:09:33;7.30;99.90
11280;DHT22;5696;50.928;6.960;2023-01-31T21:11:59;7.30;99.90
11280;DHT22;5696;50.928;6.960;2023-01-31T21:14:24;7.30;99.90
11280;DHT22;5696;50.928;6.960;2023-01-31T21:16:50;7.30;99.90
11280;DHT22;5696;50.928;6.960;2023-01-31T21:19:16;7.30;99.90
11280;DHT22;5696;50.928;6.960;2023-01-31T21:21:42;7.30;99.90
11280;DHT22;5696;50.928;6.960;2023-01-31T21:24:08;7.40;99.90
11280;DHT22;5696;50.928;6.960;2023-01-31T21:26:34;7.40;99.90
11280;DHT22;5696;50.928;6.960;2023-01-31T21:29:00;7.40;99.90
11280;DHT22;5696;50.928;6.960;2023-01-31T21:31:27;7.40;99.90
11280;DHT22;5696;50.928;6.960;2023-01-31T21:33:53;7.40;99.90
11280;DHT22;5696;50.928;6.960;2023-01-31T21:36:20;7.40;99.90
11280;DHT22;5696;50.928;6.960;2023-01-31T21:38:46;7.50;99.90
11280;DHT22;5696;50.928;6.960;2023-01-31T21:41:13;7.50;99.90
11280;DHT22;5696;50.928;6.960;2023-01-31T21:43:57;7.60;99.90
11280;DHT22;5696;50.928;6.960;2023-01-31T21:46:24;7.50;99.90
11280;DHT22;5696;50.928;6.960;2023-01-31T21:48:50;7.50;99.90
11280;DHT22;5696;50.928;6.960;2023-01-31T21:51:17;7.50;99.90
11280;DHT22;5696;50.928;6.960;2023-01-31T21:53:43;7.50;99.90
11280;DHT22;5696;50.928;6.960;2023-01-31T21:56:14;7.40;99.90
11280;DHT22;5696;50.928;6.960;2023-01-31T21:58:41;7.40;99.90
11280;DHT22;5696;50.928;6.960;2023-01-31T22:01:09;7.40;99.90
11280;DHT22;5696;50.928;6.960;2023-01-31T22:03:37;7.50;99.90
11280;DHT22;5696;50.928;6.960;2023-01-31T22:06:08;7.50;99.90
11280;DHT22;5696;50.928;6.960;2023-01-31T22:08:35;7.50;99.90
11280;DHT22;5696;50.928;6.960;2023-01-31T22:11:02;7.50;99.90
11280;DHT22;5696;50.928;6.960;2023-01-31T22:13:28;7.60;99.90
11280;DHT22;5696;50.928;6.960;2023-01-31T22:15:58;7.60;99.90
11280;DHT22;5696;50.928;6.960;2023-01-31T22:18:24;7.50;99.90
11280;DHT22;5696;50.928;6.960;2023-01-31T22:20:50;7.50;99.90
11280;DHT22;5696;50.928;6.960;2023-01-31T22:23:15;7.50;99.90
11280;DHT22;5696;50.928;6.960;2023-01-31T22:25:41;7.50;99.90
11280;DHT22;5696;50.928;6.960;2023-01-31T22:28:07;7.50;99.90
11280;DHT22;5696;50.928;6.960;2023-01-31T22:30:32;7.50;99.90
11280;DHT22;5696;50.928;6.960;2023-01-31T22:32:58;7.50;99.90
11280;DHT22;5696;50.928;6.960;2023-01-31T22:35:23;7.50;99.90
11280;DHT22;5696;50.928;6.960;2023-01-31T22:37:50;7.60;99.90
11280;DHT22;5696;50.928;6.960;2023-01-31T22:40:17;7.60;99.90
11280;DHT22;5696;50.928;6.960;2023-01-31T22:42:43;7.60;99.90
11280;DHT22;5696;50.928;6.960;2023-01-31T22:45:09;7.60;99.90
11280;DHT22;5696;50.928;6.960;2023-01-31T22:47:34;7.60;99.90
11280;DHT22;5696;50.928;6.960;2023-01-31T22:50:00;7.60;99.90
11280;DHT22;5696;50.928;6.960;2023-01-31T22:52:25;7.60;99.90
11280;DHT22;5696;50.928;6.960;2023-01-31T22:54:51;7.60;99.90
11280;DHT22;5696;50.928;6.960;2023-01-31T22:57:17;7.60;99.90
11280;DHT22;5696;50.928;6.960;2023-01-31T22:59:43;7.60;99.90
11280;DHT22;5696;50.928;6.960;2023-01-31T23:02:08;7.60;99.90
11280;DHT22;5696;50.928;6.960;2023-01-31T23:04:34;7.60;99.90
11280;DHT22;5696;50.928;6.960;2023-01-31T23:06:59;7.60;99.90
